createdAt,value
2017-11-04T00:02:32.318Z,70.35
2017-11-04T00:05:06.645Z,61.22
2017-11-04T00:07:41.160Z,60.50
2017-11-04T00:10:15.668Z,59.15
2017-11-04T00:12:50.118Z,58.28
2017-11-04T00:15:25.193Z,64.43
2017-11-04T00:17:59.632Z,66.70
2017-11-04T00:20:34.070Z,59.45
2017-11-04T00:23:08.546Z,55.20
2017-11-04T00:25:43.133Z,55.67
2017-11-04T00:28:18.340Z,70.37
2017-11-04T00:30:54.848Z,62.97
2017-11-04T00:33:30.817Z,60.58
2017-11-04T00:36:05.192Z,64.47
2017-11-04T00:38:40.013Z,72.12
2017-11-04T00:41:14.643Z,58.85
2017-11-04T00:43:49.114Z,57.35
2017-11-04T00:46:23.592Z,57.80
2017-11-04T00:48:58.147Z,67.47
2017-11-04T00:51:32.662Z,55.58
2017-11-04T00:54:07.105Z,55.38
2017-11-04T00:56:41.509Z,53.40
2017-11-04T00:59:16.086Z,58.70
2017-11-04T01:01:51.376Z,55.00
2017-11-04T01:04:25.766Z,63.83
2017-11-04T01:07:03.188Z,53.38
2017-11-04T01:09:37.543Z,63.50
2017-11-04T01:12:11.979Z,58.33
2017-11-04T01:14:46.471Z,55.10
2017-11-04T01:17:20.816Z,57.28
2017-11-04T01:19:56.030Z,67.10
2017-11-04T01:22:30.520Z,67.55
2017-11-04T01:25:05.000Z,56.10
2017-11-04T01:27:39.596Z,68.50
2017-11-04T01:30:13.939Z,47.00
2017-11-04T01:32:48.303Z,61.20
2017-11-04T01:35:22.699Z,58.65
2017-11-04T01:37:57.175Z,60.80
2017-11-04T01:40:31.943Z,80.60
2017-11-04T01:43:06.640Z,54.30
2017-11-04T01:45:43.661Z,63.17
2017-11-04T01:48:17.544Z,59.75
2017-11-04T01:50:52.029Z,63.10
2017-11-04T01:53:26.041Z,61.28
2017-11-04T01:56:00.418Z,55.08
2017-11-04T01:58:34.848Z,59.17
2017-11-04T02:01:10.139Z,58.42
2017-11-04T02:03:44.461Z,60.58
2017-11-04T02:06:19.430Z,64.07
2017-11-04T02:08:53.863Z,57.05
2017-11-04T02:11:28.339Z,58.95
2017-11-04T02:14:02.747Z,54.30
2017-11-04T02:16:37.118Z,57.90
2017-11-04T02:19:11.574Z,62.67
2017-11-04T02:21:45.948Z,64.55
2017-11-04T02:24:20.484Z,56.25
2017-11-04T02:26:54.977Z,58.45
2017-11-04T02:29:29.548Z,54.85
2017-11-04T02:32:03.939Z,58.63
2017-11-04T02:34:38.266Z,50.90
2017-11-04T02:37:12.699Z,58.33
2017-11-04T02:39:47.292Z,60.22
2017-11-04T02:42:21.727Z,57.80
2017-11-04T02:44:56.204Z,61.80
2017-11-04T02:47:30.563Z,58.17
2017-11-04T02:50:05.008Z,61.20
2017-11-04T02:52:39.613Z,45.67
2017-11-04T02:55:14.251Z,49.03
2017-11-04T02:57:49.380Z,65.43
2017-11-04T03:00:23.919Z,60.72
2017-11-04T03:02:58.228Z,56.92
2017-11-04T03:05:33.447Z,54.35
2017-11-04T03:08:07.750Z,56.65
2017-11-04T03:10:42.285Z,59.33
2017-11-04T03:13:16.900Z,50.28
2017-11-04T03:15:51.399Z,56.70
2017-11-04T03:18:25.957Z,57.88
2017-11-04T03:21:00.534Z,59.28
2017-11-04T03:23:35.124Z,55.35
2017-11-04T03:26:09.789Z,56.75
2017-11-04T03:28:44.067Z,57.35
2017-11-04T03:31:18.502Z,56.45
2017-11-04T03:33:53.720Z,58.25
2017-11-04T03:36:28.321Z,53.92
2017-11-04T03:39:02.642Z,54.65
2017-11-04T03:41:38.024Z,62.97
2017-11-04T03:44:12.505Z,62.47
2017-11-04T03:46:46.835Z,55.60
2017-11-04T03:49:21.344Z,66.25
2017-11-04T03:51:55.879Z,61.20
2017-11-04T03:54:30.353Z,60.15
2017-11-04T03:57:04.693Z,60.00
2017-11-04T03:59:39.122Z,54.20
2017-11-04T04:02:13.451Z,56.08
2017-11-04T04:04:47.970Z,58.80
2017-11-04T04:07:22.277Z,70.90
2017-11-04T04:09:56.623Z,58.05
2017-11-04T04:12:31.048Z,58.75
2017-11-04T04:15:05.426Z,64.60
2017-11-04T04:17:39.766Z,56.63
2017-11-04T04:20:14.335Z,53.95
2017-11-04T04:22:48.772Z,56.42
2017-11-04T04:25:23.172Z,57.40
2017-11-04T04:27:57.613Z,56.45
2017-11-04T04:30:31.945Z,61.55
2017-11-04T04:33:06.409Z,53.67
2017-11-04T04:35:40.748Z,54.00
2017-11-04T04:38:15.920Z,58.85
2017-11-04T04:40:50.261Z,57.70
2017-11-04T04:43:24.540Z,56.53
2017-11-04T04:45:59.058Z,58.35
2017-11-04T04:48:33.535Z,58.25
2017-11-04T04:51:08.069Z,57.13
2017-11-04T04:53:42.586Z,62.38
2017-11-04T04:56:17.101Z,60.75
2017-11-04T04:58:51.513Z,57.38
2017-11-04T05:01:25.873Z,65.05
2017-11-04T05:04:00.977Z,56.42
2017-11-04T05:06:35.472Z,58.35
2017-11-04T05:09:09.905Z,63.67
2017-11-04T05:11:44.342Z,65.57
2017-11-04T05:14:19.604Z,68.43
2017-11-04T05:16:54.080Z,59.95
2017-11-04T05:19:28.524Z,52.92
2017-11-04T05:22:02.863Z,63.80
2017-11-04T05:24:37.287Z,60.50
2017-11-04T05:27:11.836Z,63.40
2017-11-04T05:29:46.203Z,60.20
2017-11-04T05:32:20.520Z,59.60
2017-11-04T05:34:55.038Z,62.85
2017-11-04T05:37:29.459Z,59.78
2017-11-04T05:40:04.605Z,55.85
2017-11-04T05:42:39.096Z,61.08
2017-11-04T05:45:15.376Z,67.03
2017-11-04T05:47:49.822Z,58.95
2017-11-04T05:50:24.357Z,65.95
2017-11-04T05:52:58.811Z,67.47
2017-11-04T05:55:33.346Z,64.53
2017-11-04T05:58:07.788Z,62.53
2017-11-04T06:00:42.213Z,66.78
2017-11-04T06:03:16.520Z,61.88
2017-11-04T06:05:50.887Z,63.28
2017-11-04T06:08:25.309Z,58.55
2017-11-04T06:10:59.749Z,66.07
2017-11-04T06:13:34.156Z,61.15
2017-11-04T06:16:08.477Z,65.12
2017-11-04T06:18:42.878Z,63.17
2017-11-04T06:21:17.183Z,68.72
2017-11-04T06:23:51.536Z,59.42
2017-11-04T06:26:25.860Z,68.30
2017-11-04T06:29:00.205Z,61.45
2017-11-04T06:31:34.623Z,62.08
2017-11-04T06:34:09.012Z,71.20
2017-11-04T06:36:43.416Z,68.93
2017-11-04T06:39:17.952Z,60.92
2017-11-04T06:41:52.286Z,62.95
2017-11-04T06:44:27.415Z,71.43
2017-11-04T06:47:02.082Z,53.58
2017-11-04T06:49:36.534Z,73.87
2017-11-04T06:52:11.042Z,63.63
2017-11-04T06:54:45.508Z,70.10
2017-11-04T06:57:20.142Z,67.30
2017-11-04T06:59:54.649Z,72.65
2017-11-04T07:02:29.062Z,68.43
2017-11-04T07:05:03.536Z,64.43
2017-11-04T07:07:38.110Z,75.57
2017-11-04T07:10:13.317Z,82.22
2017-11-04T07:12:47.785Z,80.00
2017-11-04T07:15:22.240Z,64.82
2017-11-04T07:17:57.661Z,65.65
2017-11-04T07:20:32.045Z,73.87
2017-11-04T07:23:07.515Z,73.72
2017-11-04T07:25:41.902Z,72.07
2017-11-04T07:28:16.356Z,71.15
2017-11-04T07:30:50.824Z,75.25
2017-11-04T07:33:25.191Z,71.00
2017-11-04T07:36:00.304Z,70.97
2017-11-04T07:38:34.738Z,71.55
2017-11-04T07:41:09.184Z,71.07
2017-11-04T07:43:43.799Z,68.05
2017-11-04T07:46:18.631Z,79.15
2017-11-04T07:48:53.104Z,70.45
2017-11-04T07:51:27.552Z,65.72
2017-11-04T07:54:02.012Z,73.85
2017-11-04T07:56:36.460Z,71.40
2017-11-04T07:59:10.886Z,60.55
2017-11-04T08:01:45.318Z,66.68
2017-11-04T08:04:21.700Z,66.60
2017-11-04T08:06:56.029Z,73.93
2017-11-04T08:09:30.525Z,71.05
2017-11-04T08:12:04.874Z,70.07
2017-11-04T08:14:39.213Z,68.40
2017-11-04T08:17:13.622Z,63.38
2017-11-04T08:19:48.112Z,66.65
2017-11-04T08:22:23.239Z,70.10
2017-11-04T08:24:57.744Z,64.07
2017-11-04T08:27:32.259Z,67.75
2017-11-04T08:30:06.776Z,57.35
2017-11-04T08:32:41.104Z,73.18
2017-11-04T08:35:15.605Z,68.15
2017-11-04T08:37:49.958Z,74.93
2017-11-04T08:40:24.393Z,75.20
2017-11-04T08:42:58.856Z,63.67
2017-11-04T08:45:33.250Z,63.63
2017-11-04T08:48:07.589Z,65.50
2017-11-04T08:50:43.855Z,71.05
2017-11-04T08:53:18.197Z,68.55
2017-11-04T08:55:53.215Z,65.85
2017-11-04T08:58:27.657Z,67.25
2017-11-04T09:01:02.792Z,67.80
2017-11-04T09:03:39.105Z,63.35
2017-11-04T09:06:14.433Z,64.05
2017-11-04T09:08:48.720Z,57.05
2017-11-04T09:11:23.120Z,59.03
2017-11-04T09:13:57.712Z,52.33
2017-11-04T09:16:32.780Z,61.70
2017-11-04T09:19:07.257Z,51.37
2017-11-04T09:21:42.409Z,54.47
2017-11-04T09:24:16.760Z,50.25
2017-11-04T09:26:51.244Z,46.00
2017-11-04T09:29:26.323Z,50.75
2017-11-04T09:32:00.821Z,50.00
2017-11-04T09:34:35.318Z,53.95
2017-11-04T09:37:09.621Z,54.30
2017-11-04T09:39:44.169Z,47.17
2017-11-04T09:42:18.621Z,51.40
2017-11-04T09:44:53.271Z,51.58
2017-11-04T09:47:27.770Z,52.58
2017-11-04T09:50:03.674Z,49.60
2017-11-04T09:52:38.378Z,46.08
2017-11-04T09:55:12.886Z,48.17
2017-11-04T09:57:47.429Z,46.13
2017-11-04T10:00:21.836Z,45.35
2017-11-04T10:02:57.074Z,49.30
2017-11-04T10:05:31.725Z,39.85
2017-11-04T10:08:06.129Z,43.05
2017-11-04T10:10:40.460Z,44.97
2017-11-04T10:13:14.825Z,39.90
2017-11-04T10:15:49.520Z,41.15
2017-11-04T10:18:24.792Z,41.50
2017-11-04T10:20:59.420Z,39.80
2017-11-04T10:23:33.766Z,41.72
2017-11-04T10:26:08.199Z,37.55
2017-11-04T10:28:42.771Z,39.53
2017-11-04T10:31:17.276Z,40.60
2017-11-04T10:33:51.640Z,38.72
2017-11-04T10:36:26.949Z,41.30
2017-11-04T10:39:01.361Z,35.42
2017-11-04T10:41:35.822Z,33.88
2017-11-04T10:44:10.309Z,36.38
2017-11-04T10:46:44.704Z,32.03
2017-11-04T10:49:19.248Z,41.22
2017-11-04T10:51:53.620Z,36.63
2017-11-04T10:54:28.358Z,39.75
2017-11-04T10:57:03.202Z,36.60
2017-11-04T10:59:37.743Z,38.10
2017-11-04T11:02:12.145Z,36.85
2017-11-04T11:04:46.677Z,38.33
2017-11-04T11:07:21.169Z,38.80
2017-11-04T11:09:55.755Z,36.80
2017-11-04T11:12:30.275Z,35.60
2017-11-04T11:15:04.757Z,35.78
2017-11-04T11:17:39.240Z,37.05
2017-11-04T11:20:13.750Z,35.63
2017-11-04T11:22:48.228Z,39.70
2017-11-04T11:25:22.781Z,42.53
2017-11-04T11:27:57.203Z,35.85
2017-11-04T11:30:31.689Z,39.50
2017-11-04T11:33:06.155Z,43.45
2017-11-04T11:35:40.564Z,35.72
2017-11-04T11:38:15.076Z,34.08
2017-11-04T11:40:49.504Z,37.60
2017-11-04T11:43:24.194Z,37.42
2017-11-04T11:45:58.616Z,36.47
2017-11-04T11:48:32.980Z,30.88
2017-11-04T11:51:07.365Z,35.58
2017-11-04T11:53:41.864Z,36.60
2017-11-04T11:56:16.276Z,35.58
2017-11-04T11:58:50.699Z,37.65
2017-11-04T12:01:25.171Z,33.03
2017-11-04T12:03:59.656Z,39.35
2017-11-04T12:06:34.071Z,36.70
2017-11-04T12:09:08.509Z,37.80
2017-11-04T12:11:42.940Z,36.92
2017-11-04T12:14:17.475Z,32.80
2017-11-04T12:16:52.206Z,37.97
2017-11-04T12:19:28.375Z,36.67
2017-11-04T12:22:02.952Z,32.83
2017-11-04T12:24:37.428Z,31.65
2017-11-04T12:27:11.925Z,34.33
2017-11-04T12:29:46.310Z,35.85
2017-11-04T12:32:20.792Z,33.55
2017-11-04T12:34:55.114Z,33.80
2017-11-04T12:37:29.629Z,38.97
2017-11-04T12:40:04.237Z,35.17
2017-11-04T12:42:39.249Z,39.38
2017-11-04T12:45:13.724Z,38.42
2017-11-04T12:47:48.094Z,39.50
2017-11-04T12:50:23.262Z,36.25
2017-11-04T12:52:58.372Z,33.35
2017-11-04T12:55:32.802Z,36.50
2017-11-04T12:58:07.994Z,35.97
2017-11-04T13:00:42.503Z,37.83
2017-11-04T13:03:16.991Z,33.05
2017-11-04T13:05:51.549Z,31.55
2017-11-04T13:08:25.993Z,36.63
2017-11-04T13:11:01.250Z,36.17
2017-11-04T13:13:35.766Z,35.67
2017-11-04T13:16:10.296Z,41.83
2017-11-04T13:18:44.795Z,36.35
2017-11-04T13:21:19.294Z,37.22
2017-11-04T13:23:53.604Z,38.67
2017-11-04T13:26:28.026Z,35.85
2017-11-04T13:29:02.376Z,34.92
2017-11-04T13:31:36.887Z,33.42
2017-11-04T13:34:11.413Z,36.20
2017-11-04T13:36:45.875Z,35.60
2017-11-04T13:39:20.445Z,38.75
2017-11-04T13:41:54.856Z,36.42
2017-11-04T13:44:29.420Z,39.47
2017-11-04T13:47:03.935Z,36.20
2017-11-04T13:49:38.364Z,35.95
2017-11-04T13:52:13.562Z,36.50
2017-11-04T13:54:48.020Z,33.22
2017-11-04T13:57:23.140Z,34.83
2017-11-04T13:59:58.251Z,33.33
2017-11-04T14:02:33.405Z,34.80
2017-11-04T14:05:07.705Z,46.05
2017-11-04T14:07:42.027Z,33.28
2017-11-04T14:10:17.198Z,31.08
2017-11-04T14:12:52.425Z,36.40
2017-11-04T14:15:26.739Z,32.83
2017-11-04T14:18:01.082Z,31.05
2017-11-04T14:20:35.489Z,31.45
2017-11-04T14:23:10.004Z,36.63
2017-11-04T14:25:44.505Z,38.40
2017-11-04T14:28:18.950Z,44.55
2017-11-04T14:30:53.399Z,34.17
2017-11-04T14:33:27.903Z,30.20
2017-11-04T14:36:02.406Z,36.25
2017-11-04T14:38:36.927Z,37.67
2017-11-04T14:41:11.258Z,29.98
2017-11-04T14:43:45.800Z,38.90
2017-11-04T14:46:21.268Z,33.47
2017-11-04T14:48:55.808Z,37.35
2017-11-04T14:51:30.119Z,32.22
2017-11-04T14:54:04.779Z,31.08
2017-11-04T14:56:39.249Z,34.75
2017-11-04T14:59:13.775Z,37.13
2017-11-04T15:01:48.198Z,42.70
2017-11-04T15:04:23.410Z,30.58
2017-11-04T15:06:57.824Z,33.17
2017-11-04T15:09:32.403Z,28.45
2017-11-04T15:12:06.817Z,32.20
2017-11-04T15:14:41.131Z,33.53
2017-11-04T15:17:15.578Z,32.97
2017-11-04T15:19:50.004Z,30.30
2017-11-04T15:22:24.434Z,30.73
2017-11-04T15:24:58.799Z,33.97
2017-11-04T15:27:33.403Z,32.53
2017-11-04T15:30:07.884Z,28.83
2017-11-04T15:32:42.410Z,33.92
2017-11-04T15:35:16.937Z,31.67
2017-11-04T15:37:52.348Z,34.67
2017-11-04T15:40:26.776Z,36.05
2017-11-04T15:43:02.000Z,32.03
2017-11-04T15:45:36.438Z,31.95
2017-11-04T15:48:10.884Z,32.50
2017-11-04T15:50:46.072Z,33.47
2017-11-04T15:53:20.417Z,35.22
2017-11-04T15:55:57.082Z,33.15
2017-11-04T15:58:32.337Z,28.90
2017-11-04T16:01:06.750Z,29.90
2017-11-04T16:03:41.090Z,38.00
2017-11-04T16:06:15.581Z,34.70
2017-11-04T16:08:51.884Z,38.67
2017-11-04T16:11:29.480Z,37.75
2017-11-04T16:14:03.816Z,35.17
2017-11-04T16:16:38.967Z,35.08
2017-11-04T16:19:13.320Z,32.78
2017-11-04T16:21:47.783Z,38.80
2017-11-04T16:24:22.356Z,34.40
2017-11-04T16:26:56.941Z,36.90
2017-11-04T16:29:31.667Z,32.70
2017-11-04T16:32:06.120Z,30.20
2017-11-04T16:34:40.637Z,29.63
2017-11-04T16:37:14.956Z,30.00
2017-11-04T16:39:49.289Z,37.05
2017-11-04T16:42:25.698Z,35.78
2017-11-04T16:45:00.736Z,35.28
2017-11-04T16:47:35.208Z,35.78
2017-11-04T16:50:09.813Z,37.05
2017-11-04T16:52:44.121Z,36.85
2017-11-04T16:55:18.582Z,38.97
2017-11-04T16:57:53.005Z,38.72
2017-11-04T17:00:27.640Z,33.70
2017-11-04T17:03:02.162Z,36.40
2017-11-04T17:05:37.368Z,41.42
2017-11-04T17:08:12.576Z,40.63
2017-11-04T17:10:47.479Z,35.70
2017-11-04T17:13:23.022Z,41.88
2017-11-04T17:15:57.420Z,37.00
2017-11-04T17:18:31.770Z,38.80
2017-11-04T17:21:06.353Z,36.80
2017-11-04T17:23:40.813Z,47.58
2017-11-04T17:26:15.173Z,35.03
2017-11-04T17:28:50.307Z,41.03
2017-11-04T17:31:24.665Z,41.80
2017-11-04T17:33:59.109Z,46.15
2017-11-04T17:36:33.429Z,40.85
2017-11-04T17:39:07.728Z,39.47
2017-11-04T17:41:42.299Z,44.20
2017-11-04T17:44:16.764Z,43.17
2017-11-04T17:46:51.113Z,42.13
2017-11-04T17:49:25.554Z,46.40
2017-11-04T17:52:00.008Z,39.15
2017-11-04T17:54:34.514Z,46.13
2017-11-04T17:57:09.751Z,48.13
2017-11-04T17:59:44.179Z,47.45
2017-11-04T18:02:18.578Z,43.53
2017-11-04T18:04:52.948Z,45.90
2017-11-04T18:07:27.411Z,38.25
2017-11-04T18:10:01.805Z,49.83
2017-11-04T18:12:36.362Z,48.60
2017-11-04T18:15:10.842Z,50.60
2017-11-04T18:17:45.854Z,50.25
2017-11-04T18:20:20.957Z,45.25
2017-11-04T18:22:55.487Z,48.47
2017-11-04T18:25:29.941Z,54.35
2017-11-04T18:28:04.684Z,47.40
2017-11-04T18:30:39.974Z,46.42
2017-11-04T18:33:14.552Z,56.35
2017-11-04T18:35:49.248Z,42.50
2017-11-04T18:38:24.123Z,45.25
2017-11-04T18:40:58.738Z,42.08
2017-11-04T18:43:33.236Z,43.22
2017-11-04T18:46:07.688Z,47.80
2017-11-04T18:48:42.369Z,49.47
2017-11-04T18:51:16.975Z,43.15
2017-11-04T18:53:51.598Z,46.97
2017-11-04T18:56:26.295Z,41.47
2017-11-04T18:59:01.202Z,47.70
2017-11-04T19:01:36.136Z,45.40
2017-11-04T19:04:11.686Z,54.15
2017-11-04T19:06:46.292Z,44.50
2017-11-04T19:09:21.158Z,47.58
2017-11-04T19:11:55.967Z,51.67
2017-11-04T19:14:31.031Z,54.38
2017-11-04T19:17:05.815Z,48.80
2017-11-04T19:19:40.669Z,53.65
2017-11-04T19:22:15.586Z,44.22
2017-11-04T19:24:50.351Z,48.08
2017-11-04T19:27:25.086Z,44.90
2017-11-04T19:29:59.889Z,45.45
2017-11-04T19:32:34.595Z,39.13
2017-11-04T19:35:09.274Z,40.45
2017-11-04T19:37:44.198Z,45.25
2017-11-04T19:40:18.976Z,46.15
2017-11-04T19:42:54.066Z,40.85
2017-11-04T19:45:29.003Z,46.25
2017-11-04T19:48:04.479Z,45.20
2017-11-04T19:50:39.830Z,41.80
2017-11-04T19:53:14.593Z,47.20
2017-11-04T19:55:50.317Z,47.65
2017-11-04T19:58:25.173Z,41.72
2017-11-04T20:01:00.091Z,43.50
2017-11-04T20:03:34.949Z,42.67
2017-11-04T20:06:10.843Z,42.92
2017-11-04T20:08:46.249Z,42.20
2017-11-04T20:11:21.265Z,41.42
2017-11-04T20:13:55.932Z,43.80
2017-11-04T20:16:31.529Z,41.30
2017-11-04T20:19:06.287Z,41.37
2017-11-04T20:21:41.051Z,45.12
2017-11-04T20:24:16.122Z,41.70
2017-11-04T20:26:50.885Z,40.63
2017-11-04T20:29:25.751Z,47.80
2017-11-04T20:32:01.255Z,44.65
2017-11-04T20:34:36.330Z,42.00
2017-11-04T20:37:11.282Z,41.47
2017-11-04T20:39:47.095Z,41.60
2017-11-04T20:42:23.886Z,43.50
2017-11-04T20:44:58.855Z,43.20
2017-11-04T20:47:34.335Z,43.35
2017-11-04T20:50:09.953Z,44.58
2017-11-04T20:52:45.821Z,42.38
2017-11-04T20:55:20.592Z,36.67
2017-11-04T20:57:56.600Z,40.75
2017-11-04T21:00:31.731Z,40.85
2017-11-04T21:03:06.613Z,48.92
2017-11-04T21:05:41.939Z,36.53
2017-11-04T21:08:17.704Z,36.53
2017-11-04T21:10:53.731Z,36.17
2017-11-04T21:13:28.371Z,44.13
2017-11-04T21:16:03.153Z,44.25
2017-11-04T21:18:39.418Z,41.63
2017-11-04T21:21:14.301Z,45.80
2017-11-04T21:23:49.163Z,39.45
2017-11-04T21:26:24.617Z,34.95
2017-11-04T21:28:59.430Z,45.50
2017-11-04T21:31:35.040Z,38.55
2017-11-04T21:34:09.554Z,42.97
2017-11-04T21:36:44.123Z,40.35
2017-11-04T21:39:18.849Z,39.22
2017-11-04T21:41:53.723Z,40.28
2017-11-04T21:44:32.246Z,40.80
2017-11-04T21:47:07.515Z,36.28
2017-11-04T21:49:42.363Z,37.00
2017-11-04T21:52:16.689Z,38.72
2017-11-04T21:54:51.031Z,34.38
2017-11-04T21:57:25.605Z,36.47
2017-11-04T22:00:00.147Z,39.63
2017-11-04T22:02:34.628Z,31.80
2017-11-04T22:05:09.119Z,38.78
2017-11-04T22:07:44.564Z,33.53
2017-11-04T22:10:19.041Z,35.83
2017-11-04T22:12:53.389Z,30.25
2017-11-04T22:15:29.122Z,29.30
2017-11-04T22:18:03.611Z,33.53
2017-11-04T22:20:38.271Z,32.83
2017-11-04T22:23:13.470Z,27.37
2017-11-04T22:25:48.004Z,30.65
2017-11-04T22:28:22.423Z,29.73
2017-11-04T22:30:56.904Z,31.20
2017-11-04T22:33:31.302Z,29.08
2017-11-04T22:36:06.632Z,31.98
2017-11-04T22:38:40.992Z,36.00
2017-11-04T22:41:15.472Z,36.72
2017-11-04T22:43:50.013Z,34.05
2017-11-04T22:46:25.537Z,38.50
2017-11-04T22:49:01.451Z,33.45
2017-11-04T22:51:35.962Z,33.05
2017-11-04T22:54:10.518Z,27.90
2017-11-04T22:56:45.884Z,32.08
2017-11-04T22:59:20.264Z,28.85
2017-11-04T23:01:56.354Z,33.75
2017-11-04T23:04:30.842Z,26.27
2017-11-04T23:07:05.436Z,31.62
2017-11-04T23:09:39.941Z,31.12
2017-11-04T23:12:14.472Z,35.78
2017-11-04T23:14:48.915Z,28.35
2017-11-04T23:17:24.220Z,27.58
2017-11-04T23:19:58.740Z,30.88
2017-11-04T23:22:33.200Z,29.20
2017-11-04T23:25:07.668Z,27.95
2017-11-04T23:27:42.405Z,32.05
2017-11-04T23:30:16.764Z,33.20
2017-11-04T23:32:52.018Z,33.25
2017-11-04T23:35:26.488Z,25.70
2017-11-04T23:38:01.664Z,32.55
2017-11-04T23:40:36.205Z,34.25
2017-11-04T23:43:10.556Z,21.33
2017-11-04T23:45:45.010Z,26.42
2017-11-04T23:48:19.431Z,29.23
2017-11-04T23:50:54.649Z,26.30
2017-11-04T23:53:29.015Z,28.75
2017-11-04T23:56:03.387Z,30.50
2017-11-04T23:58:37.868Z,31.80
